Time;durP1;ratioP1;P1;durP2;ratioP2;P2;SDS_P1;SDS_P2;PMS_P1;PMS_P2;Temp;Humidity;BMP_temperature;BMP_pressure;BME280_temperature;BME280_humidity;BME280_pressure;Samples;Min_cycle;Max_cycle;Signal;HPM_P1;HPM_P2
2021/05/19 00:02:03;;;;;;;5.15;2.22;;;;;;;;;;4925277;29;20083;-64
2021/05/19 00:04:30;;;;;;;5.82;2.17;;;;;;;;;;4929782;29;20063;-65
2021/05/19 00:06:56;;;;;;;4.00;2.10;;;;;;;;;;4915181;29;20044;-64
2021/05/19 00:09:22;;;;;;;6.13;2.30;;;;;;;;;;4916272;29;20047;-59
2021/05/19 00:11:48;;;;;;;5.70;2.17;;;;;;;;;;4917232;29;20049;-62
2021/05/19 00:14:15;;;;;;;7.07;2.50;;;;;;;;;;4909662;29;20040;-61
2021/05/19 00:16:41;;;;;;;5.53;2.45;;;;;;;;;;4907024;29;20052;-59
2021/05/19 00:19:07;;;;;;;5.40;2.08;;;;;;;;;;4910872;29;20032;-53
2021/05/19 00:21:35;;;;;;;5.07;2.28;;;;;;;;;;4910047;29;20079;-60
2021/05/19 00:24:01;;;;;;;7.43;2.58;;;;;;;;;;4931300;29;20039;-63
2021/05/19 00:26:27;;;;;;;5.97;2.38;;;;;;;;;;4935975;29;20079;-61
2021/05/19 00:28:53;;;;;;;6.18;2.55;;;;;;;;;;4920468;29;20048;-57
2021/05/19 00:31:22;;;;;;;7.95;2.75;;;;;;;;;;4930627;29;20088;-58
2021/05/19 00:33:48;;;;;;;8.30;3.00;;;;;;;;;;4908457;29;20040;-62
2021/05/19 00:36:14;;;;;;;8.82;3.38;;;;;;;;;;4913942;29;20040;-59
2021/05/19 00:38:41;;;;;;;7.93;3.50;;;;;;;;;;4924736;29;20062;-56
2021/05/19 00:41:07;;;;;;;6.82;2.75;;;;;;;;;;4917731;29;20035;-57
2021/05/19 00:43:37;;;;;;;7.75;3.03;;;;;;;;;;4928064;29;20048;-56
2021/05/19 00:46:03;;;;;;;7.10;3.10;;;;;;;;;;4931467;29;20051;-59
2021/05/19 00:48:29;;;;;;;5.65;2.78;;;;;;;;;;4916920;29;20040;-57
2021/05/19 00:50:55;;;;;;;10.82;3.00;;;;;;;;;;4913113;29;20448;-57
2021/05/19 00:53:22;;;;;;;7.00;2.67;;;;;;;;;;4917086;29;20036;-60
2021/05/19 00:55:49;;;;;;;7.45;3.05;;;;;;;;;;4931352;29;20047;-59
2021/05/19 00:58:15;;;;;;;6.57;2.75;;;;;;;;;;4920456;29;20040;-60
2021/05/19 01:00:41;;;;;;;7.35;3.22;;;;;;;;;;4911740;29;20046;-60
2021/05/19 01:03:07;;;;;;;7.97;3.10;;;;;;;;;;4928986;28;20071;-63
2021/05/19 01:05:37;;;;;;;8.90;3.17;;;;;;;;;;4903265;29;20042;-62
2021/05/19 01:10:47;;;;;;;8.00;3.25;;;;;;;;;;4920791;29;20036;-60
2021/05/19 01:13:19;;;;;;;9.65;3.33;;;;;;;;;;4895862;29;20028;-60
2021/05/19 01:15:45;;;;;;;8.73;3.95;;;;;;;;;;4927136;29;20059;-63
2021/05/19 01:18:11;;;;;;;8.00;3.85;;;;;;;;;;4911171;29;20036;-63
2021/05/19 01:20:37;;;;;;;9.05;3.80;;;;;;;;;;4898770;29;20032;-60
2021/05/19 01:23:07;;;;;;;7.45;3.65;;;;;;;;;;4908067;29;20047;-63
2021/05/19 01:25:33;;;;;;;8.90;4.00;;;;;;;;;;4918765;29;20048;-64
2021/05/19 01:28:00;;;;;;;7.95;3.85;;;;;;;;;;4894113;29;20040;-65
2021/05/19 01:30:27;;;;;;;9.13;4.60;;;;;;;;;;4896834;29;20029;-60
2021/05/19 01:32:54;;;;;;;8.85;3.92;;;;;;;;;;4903884;29;20119;-65
2021/05/19 01:35:20;;;;;;;8.60;3.97;;;;;;;;;;4917801;29;20051;-64
2021/05/19 01:37:46;;;;;;;10.55;4.10;;;;;;;;;;4929720;29;20123;-62
2021/05/19 01:40:14;;;;;;;12.82;5.00;;;;;;;;;;4906577;29;20044;-56
2021/05/19 01:42:41;;;;;;;9.13;4.70;;;;;;;;;;4902817;29;20076;-58
2021/05/19 01:45:08;;;;;;;12.40;4.63;;;;;;;;;;4899860;29;20024;-62
2021/05/19 01:47:38;;;;;;;11.20;4.40;;;;;;;;;;4895383;29;20042;-62
2021/05/19 01:50:06;;;;;;;9.38;4.30;;;;;;;;;;4910706;29;20126;-59
2021/05/19 01:52:35;;;;;;;13.38;4.68;;;;;;;;;;4923079;29;20060;-55
2021/05/19 01:55:02;;;;;;;11.00;4.47;;;;;;;;;;4906734;29;20071;-59
2021/05/19 01:57:29;;;;;;;9.45;4.70;;;;;;;;;;4909663;29;20049;-57
2021/05/19 01:59:55;;;;;;;13.13;4.38;;;;;;;;;;4891014;29;20055;-60
2021/05/19 02:02:22;;;;;;;10.65;4.95;;;;;;;;;;4909377;29;20035;-60
2021/05/19 02:04:49;;;;;;;11.05;4.70;;;;;;;;;;4928091;29;20067;-58
2021/05/19 02:07:15;;;;;;;10.35;4.68;;;;;;;;;;4895854;29;20033;-58
2021/05/19 02:09:41;;;;;;;12.90;5.15;;;;;;;;;;4891959;29;20033;-60
2021/05/19 02:12:09;;;;;;;9.63;4.72;;;;;;;;;;4912570;29;20096;-59
2021/05/19 02:14:36;;;;;;;14.82;4.65;;;;;;;;;;4903045;29;20065;-60
2021/05/19 02:17:02;;;;;;;8.68;4.45;;;;;;;;;;4912695;29;20098;-57
2021/05/19 02:19:28;;;;;;;11.35;5.03;;;;;;;;;;4914861;29;20056;-58
2021/05/19 02:21:54;;;;;;;13.35;4.90;;;;;;;;;;4911976;29;20048;-60
2021/05/19 02:24:22;;;;;;;12.88;4.78;;;;;;;;;;4922594;29;20519;-57
2021/05/19 02:26:48;;;;;;;10.38;5.13;;;;;;;;;;4900093;29;20077;-59
2021/05/19 02:29:14;;;;;;;10.30;4.90;;;;;;;;;;4897574;29;20064;-60
2021/05/19 02:31:41;;;;;;;10.07;4.60;;;;;;;;;;4903809;29;20046;-61
2021/05/19 02:34:08;;;;;;;12.48;4.68;;;;;;;;;;4896152;29;20044;-56
2021/05/19 02:36:34;;;;;;;8.98;4.80;;;;;;;;;;4908289;29;20044;-57
2021/05/19 02:39:00;;;;;;;8.38;4.85;;;;;;;;;;4899163;29;20055;-62
2021/05/19 02:41:28;;;;;;;11.20;4.90;;;;;;;;;;4918775;29;20055;-60
2021/05/19 02:43:54;;;;;;;10.43;5.00;;;;;;;;;;4915702;29;20039;-60
2021/05/19 02:46:20;;;;;;;11.45;4.80;;;;;;;;;;4904340;29;20048;-57
2021/05/19 02:48:47;;;;;;;11.73;4.57;;;;;;;;;;4894550;29;20130;-58
2021/05/19 02:51:13;;;;;;;10.70;4.65;;;;;;;;;;4906308;29;20095;-61
2021/05/19 02:53:39;;;;;;;8.50;4.35;;;;;;;;;;4915128;29;20048;-63
2021/05/19 02:56:05;;;;;;;8.80;4.20;;;;;;;;;;4906293;29;20051;-61
2021/05/19 02:58:31;;;;;;;9.95;4.53;;;;;;;;;;4900819;29;20058;-63
2021/05/19 03:00:57;;;;;;;12.82;4.88;;;;;;;;;;4899503;29;20455;-62
2021/05/19 03:03:23;;;;;;;12.43;4.90;;;;;;;;;;4898189;29;20055;-58
2021/05/19 03:05:50;;;;;;;9.02;4.88;;;;;;;;;;4892877;29;20032;-61
2021/05/19 03:08:16;;;;;;;10.48;4.85;;;;;;;;;;4895165;29;20477;-58
2021/05/19 03:10:42;;;;;;;9.52;4.47;;;;;;;;;;4911244;29;20055;-60
2021/05/19 03:13:08;;;;;;;11.65;5.03;;;;;;;;;;4911018;29;20057;-60
2021/05/19 03:15:35;;;;;;;13.00;5.45;;;;;;;;;;4930261;29;20094;-58
2021/05/19 03:18:01;;;;;;;8.80;4.78;;;;;;;;;;4926069;29;20039;-60
2021/05/19 03:20:27;;;;;;;10.65;5.50;;;;;;;;;;4929681;29;20072;-57
2021/05/19 03:22:59;;;;;;;13.60;5.50;;;;;;;;;;4948001;28;20048;-58
2021/05/19 03:25:26;;;;;;;12.80;5.45;;;;;;;;;;4929769;29;20047;-57
2021/05/19 03:27:52;;;;;;;11.60;5.65;;;;;;;;;;4915101;29;20040;-58
2021/05/19 03:30:19;;;;;;;12.68;5.85;;;;;;;;;;4908761;29;20132;-55
2021/05/19 03:32:47;;;;;;;12.55;6.10;;;;;;;;;;4911751;29;20032;-57
2021/05/19 03:35:13;;;;;;;;;;;;;;;;;;4907690;29;20415;-56
2021/05/19 03:37:39;;;;;;;12.43;5.05;;;;;;;;;;4909854;29;19919;-63
2021/05/19 03:40:07;;;;;;;14.27;5.93;;;;;;;;;;4910130;29;20120;-60
2021/05/19 03:42:34;;;;;;;12.13;5.72;;;;;;;;;;4929547;29;20193;-59
2021/05/19 03:45:00;;;;;;;15.55;6.00;;;;;;;;;;4918541;29;20031;-59
2021/05/19 03:47:26;;;;;;;10.18;5.90;;;;;;;;;;4927358;29;20032;-51
2021/05/19 03:49:52;;;;;;;10.75;5.28;;;;;;;;;;4907538;29;20473;-59
2021/05/19 03:52:22;;;;;;;13.68;6.15;;;;;;;;;;4911142;29;20028;-61
2021/05/19 03:54:48;;;;;;;12.65;5.82;;;;;;;;;;4907625;29;20047;-60
2021/05/19 03:57:14;;;;;;;11.25;5.43;;;;;;;;;;4927509;29;20039;-58
2021/05/19 03:59:41;;;;;;;11.60;5.53;;;;;;;;;;4907886;29;20064;-59
2021/05/19 04:02:07;;;;;;;17.42;6.30;;;;;;;;;;4897490;29;20063;-56
2021/05/19 04:04:33;;;;;;;12.15;6.18;;;;;;;;;;4893736;29;20051;-57
2021/05/19 04:06:59;;;;;;;10.88;5.15;;;;;;;;;;4922380;29;20090;-58
2021/05/19 04:09:26;;;;;;;13.45;6.10;;;;;;;;;;4932125;29;20059;-62
2021/05/19 04:11:52;;;;;;;12.93;5.55;;;;;;;;;;4912905;29;20063;-62
2021/05/19 04:14:18;;;;;;;12.43;6.13;;;;;;;;;;4913501;29;20561;-61
2021/05/19 04:16:45;;;;;;;11.95;5.75;;;;;;;;;;4921981;29;20042;-63
2021/05/19 04:19:11;;;;;;;13.35;6.35;;;;;;;;;;4931031;29;20047;-60
2021/05/19 04:21:38;;;;;;;16.40;6.25;;;;;;;;;;4919185;29;20036;-58
2021/05/19 04:24:04;;;;;;;12.18;6.10;;;;;;;;;;4913251;29;20055;-61
2021/05/19 04:26:30;;;;;;;16.52;6.72;;;;;;;;;;4905635;29;20040;-60
2021/05/19 04:28:56;;;;;;;14.50;5.90;;;;;;;;;;4911818;29;20048;-63
2021/05/19 04:31:28;;;;;;;19.60;5.65;;;;;;;;;;4908546;29;20055;-64
2021/05/19 04:33:55;;;;;;;13.63;6.35;;;;;;;;;;4912912;29;20099;-59
2021/05/19 04:36:21;;;;;;;14.80;5.95;;;;;;;;;;4912276;29;20047;-55
2021/05/19 04:38:47;;;;;;;10.40;5.82;;;;;;;;;;4932304;29;20084;-59
2021/05/19 04:41:14;;;;;;;11.38;5.78;;;;;;;;;;4929929;29;20039;-56
2021/05/19 04:43:39;;;;;;;11.95;6.47;;;;;;;;;;4911262;29;20040;-62
2021/05/19 04:46:06;;;;;;;12.40;6.30;;;;;;;;;;4914814;29;20491;-60
2021/05/19 04:48:32;;;;;;;13.07;5.93;;;;;;;;;;4909756;29;20040;-58
2021/05/19 04:50:59;;;;;;;13.25;6.20;;;;;;;;;;4914750;29;20047;-55
2021/05/19 04:53:28;;;;;;;10.27;6.15;;;;;;;;;;4922321;29;20084;-59
2021/05/19 04:55:54;;;;;;;14.25;6.18;;;;;;;;;;4919999;29;20138;-57
2021/05/19 04:58:25;;;;;;;13.18;6.40;;;;;;;;;;4910505;29;20048;-54
2021/05/19 05:00:52;;;;;;;13.85;6.78;;;;;;;;;;4911893;29;20028;-57
2021/05/19 05:03:18;;;;;;;13.10;5.85;;;;;;;;;;4905873;29;20047;-58
2021/05/19 05:05:46;;;;;;;12.60;6.55;;;;;;;;;;4911906;29;20434;-53
2021/05/19 05:08:13;;;;;;;17.80;6.78;;;;;;;;;;4907147;29;20038;-58
2021/05/19 05:10:39;;;;;;;13.35;7.00;;;;;;;;;;4910984;29;20032;-56
2021/05/19 05:13:23;;;;;;;15.52;6.95;;;;;;;;;;4902963;28;20043;-56
2021/05/19 05:15:49;;;;;;;15.52;6.90;;;;;;;;;;4918614;29;20046;-55
2021/05/19 05:18:15;;;;;;;13.05;6.63;;;;;;;;;;4923089;29;20036;-52
2021/05/19 05:20:42;;;;;;;15.52;7.72;;;;;;;;;;4912878;29;20036;-57
2021/05/19 05:23:10;;;;;;;13.50;6.60;;;;;;;;;;4901067;29;20107;-57
2021/05/19 05:25:36;;;;;;;12.18;6.78;;;;;;;;;;4908172;29;20056;-54
2021/05/19 05:28:03;;;;;;;17.08;6.00;;;;;;;;;;4904053;29;20043;-57
2021/05/19 05:30:29;;;;;;;16.75;7.00;;;;;;;;;;4906371;29;20070;-54
2021/05/19 05:32:56;;;;;;;17.58;6.93;;;;;;;;;;4907341;29;20028;-55
2021/05/19 05:35:22;;;;;;;14.35;5.97;;;;;;;;;;4915449;29;20040;-53
2021/05/19 05:37:48;;;;;;;17.40;6.47;;;;;;;;;;4904079;29;20050;-58
2021/05/19 05:40:14;;;;;;;17.67;6.80;;;;;;;;;;4921082;29;20063;-54
2021/05/19 05:42:43;;;;;;;15.02;7.07;;;;;;;;;;4907529;29;20047;-55
2021/05/19 05:45:10;;;;;;;14.10;6.80;;;;;;;;;;4904585;29;20064;-60
2021/05/19 05:47:36;;;;;;;24.55;9.90;;;;;;;;;;4908038;29;20095;-59
2021/05/19 05:50:03;;;;;;;14.43;7.80;;;;;;;;;;4903315;29;20056;-56
2021/05/19 05:52:29;;;;;;;15.48;6.53;;;;;;;;;;4906437;29;20041;-61
2021/05/19 05:54:55;;;;;;;14.57;7.25;;;;;;;;;;4904232;29;20043;-55
2021/05/19 05:57:21;;;;;;;15.80;7.72;;;;;;;;;;4915846;29;20054;-60
2021/05/19 05:59:48;;;;;;;15.35;7.57;;;;;;;;;;4906277;29;20044;-61
2021/05/19 06:02:14;;;;;;;17.90;7.40;;;;;;;;;;4907125;29;20056;-52
2021/05/19 06:04:42;;;;;;;16.10;6.82;;;;;;;;;;4904408;29;20091;-59
2021/05/19 06:07:08;;;;;;;19.33;6.70;;;;;;;;;;4903885;29;20056;-58
2021/05/19 06:09:34;;;;;;;14.95;6.82;;;;;;;;;;4905602;29;20087;-58
2021/05/19 06:12:03;;;;;;;20.42;7.60;;;;;;;;;;4910653;29;20089;-55
2021/05/19 06:14:29;;;;;;;21.75;9.07;;;;;;;;;;4909425;29;20048;-51
2021/05/19 06:16:58;;;;;;;16.65;7.30;;;;;;;;;;4909281;29;20603;-53
2021/05/19 06:19:24;;;;;;;17.90;7.22;;;;;;;;;;4912800;29;20118;-56
2021/05/19 06:21:58;;;;;;;20.05;8.00;;;;;;;;;;4936764;29;20054;-52
2021/05/19 06:24:24;;;;;;;20.30;6.90;;;;;;;;;;4957605;28;20039;-58
2021/05/19 06:26:50;;;;;;;16.83;6.53;;;;;;;;;;4915478;29;20120;-62
2021/05/19 06:29:16;;;;;;;15.48;6.82;;;;;;;;;;4931367;29;20047;-55
2021/05/19 06:31:49;;;;;;;12.88;6.20;;;;;;;;;;4927572;29;20039;-56
2021/05/19 06:34:16;;;;;;;20.98;8.90;;;;;;;;;;4948024;29;20072;-58
2021/05/19 06:36:45;;;;;;;21.25;8.70;;;;;;;;;;4935880;29;20052;-58
2021/05/19 06:39:11;;;;;;;24.05;8.85;;;;;;;;;;4911040;29;20044;-55
2021/05/19 06:41:42;;;;;;;18.48;9.40;;;;;;;;;;4916935;29;20044;-57
2021/05/19 06:44:08;;;;;;;23.15;9.23;;;;;;;;;;4911719;29;20048;-60
2021/05/19 06:46:34;;;;;;;19.55;7.95;;;;;;;;;;4908536;29;20088;-58
2021/05/19 06:49:03;;;;;;;23.40;9.48;;;;;;;;;;4912139;29;20048;-57
2021/05/19 06:51:30;;;;;;;20.45;8.63;;;;;;;;;;4907608;29;20047;-59
2021/05/19 06:53:56;;;;;;;23.55;8.20;;;;;;;;;;4909561;29;20107;-55
2021/05/19 06:56:27;;;;;;;21.85;9.68;;;;;;;;;;4928890;29;20091;-57
2021/05/19 06:58:53;;;;;;;20.73;8.35;;;;;;;;;;4904401;29;20048;-60
2021/05/19 07:01:20;;;;;;;20.63;8.98;;;;;;;;;;4910237;29;20052;-56
2021/05/19 07:03:49;;;;;;;19.58;8.27;;;;;;;;;;4922677;29;20049;-55
2021/05/19 07:06:15;;;;;;;23.75;8.57;;;;;;;;;;4929524;29;20076;-58
2021/05/19 07:08:42;;;;;;;26.67;9.25;;;;;;;;;;4911687;29;20058;-56
2021/05/19 07:11:08;;;;;;;26.35;9.98;;;;;;;;;;4909375;29;20059;-60
2021/05/19 07:13:34;;;;;;;27.83;8.50;;;;;;;;;;4923878;29;20346;-60
2021/05/19 07:16:01;;;;;;;20.23;8.27;;;;;;;;;;4910327;29;20044;-60
2021/05/19 07:18:27;;;;;;;19.02;8.55;;;;;;;;;;4909102;29;20032;-56
2021/05/19 07:20:53;;;;;;;24.00;8.93;;;;;;;;;;4911026;29;20051;-54
2021/05/19 07:23:20;;;;;;;22.65;8.93;;;;;;;;;;4908481;29;20040;-57
2021/05/19 07:25:48;;;;;;;20.95;8.57;;;;;;;;;;4904550;29;20132;-61
2021/05/19 07:28:14;;;;;;;20.45;8.25;;;;;;;;;;4892081;29;20054;-58
2021/05/19 07:30:42;;;;;;;22.55;9.02;;;;;;;;;;4910967;29;20047;-58
2021/05/19 07:33:09;;;;;;;21.15;8.95;;;;;;;;;;4908232;29;20036;-57
2021/05/19 07:35:35;;;;;;;29.85;9.70;;;;;;;;;;4943638;29;20047;-61
2021/05/19 07:38:02;;;;;;;22.70;9.18;;;;;;;;;;4928945;29;20042;-57
2021/05/19 07:40:28;;;;;;;24.25;8.88;;;;;;;;;;4919017;29;20040;-54
2021/05/19 07:42:55;;;;;;;18.67;8.38;;;;;;;;;;4910547;29;20048;-60
2021/05/19 07:45:20;;;;;;;20.38;8.98;;;;;;;;;;4921542;29;20031;-56
2021/05/19 07:47:46;;;;;;;20.23;8.07;;;;;;;;;;4930474;29;20043;-56
2021/05/19 07:50:14;;;;;;;27.10;9.07;;;;;;;;;;4915703;29;20051;-56
2021/05/19 07:52:44;;;;;;;17.95;8.25;;;;;;;;;;4928805;29;20036;-56
2021/05/19 07:55:22;;;;;;;24.00;8.82;;;;;;;;;;4935036;29;20040;-55
2021/05/19 07:57:50;;;;;;;21.50;8.70;;;;;;;;;;4929566;29;20047;-55
2021/05/19 08:00:22;;;;;;;24.23;9.05;;;;;;;;;;4916290;29;20064;-57
2021/05/19 08:02:48;;;;;;;23.00;7.78;;;;;;;;;;4910700;29;20156;-57
2021/05/19 08:05:14;;;;;;;23.85;9.77;;;;;;;;;;4907962;29;20048;-55
2021/05/19 08:07:40;;;;;;;26.73;8.77;;;;;;;;;;4910424;29;20042;-58
2021/05/19 08:10:07;;;;;;;26.63;9.55;;;;;;;;;;4911812;29;20044;-58
2021/05/19 08:12:39;;;;;;;20.13;9.10;;;;;;;;;;4946575;29;20039;-57
2021/05/19 08:15:06;;;;;;;28.33;9.32;;;;;;;;;;4921504;29;20059;-56
2021/05/19 08:17:35;;;;;;;25.63;9.65;;;;;;;;;;4909884;29;20157;-55
2021/05/19 08:20:01;;;;;;;26.95;9.50;;;;;;;;;;4909552;29;20051;-56
2021/05/19 08:22:27;;;;;;;21.67;10.20;;;;;;;;;;4945113;29;20051;-59
2021/05/19 08:24:53;;;;;;;25.05;9.95;;;;;;;;;;4928866;29;20024;-55
2021/05/19 08:27:19;;;;;;;23.75;9.63;;;;;;;;;;4906175;29;20193;-56
2021/05/19 08:29:46;;;;;;;32.70;10.88;;;;;;;;;;4910308;29;20064;-57
2021/05/19 08:32:12;;;;;;;25.02;9.38;;;;;;;;;;4921059;29;20043;-54
2021/05/19 08:34:39;;;;;;;30.17;9.95;;;;;;;;;;4928336;29;20047;-58
2021/05/19 08:37:05;;;;;;;24.98;10.00;;;;;;;;;;4910107;29;20047;-56
2021/05/19 08:39:31;;;;;;;25.05;10.48;;;;;;;;;;4909325;29;20059;-57
2021/05/19 08:42:04;;;;;;;27.45;9.38;;;;;;;;;;4904924;29;20036;-57
2021/05/19 08:44:30;;;;;;;25.63;10.27;;;;;;;;;;4923555;29;20043;-58
2021/05/19 08:46:57;;;;;;;21.42;9.80;;;;;;;;;;4927753;29;20162;-55
2021/05/19 08:49:24;;;;;;;22.73;8.85;;;;;;;;;;4932329;29;20031;-52
2021/05/19 08:51:57;;;;;;;24.55;9.77;;;;;;;;;;4907361;29;20047;-54
2021/05/19 08:54:24;;;;;;;26.42;10.38;;;;;;;;;;4927408;29;20039;-55
2021/05/19 08:56:50;;;;;;;26.50;9.77;;;;;;;;;;4927965;29;20047;-54
2021/05/19 08:59:16;;;;;;;28.52;10.10;;;;;;;;;;4930883;29;20094;-62
2021/05/19 09:01:46;;;;;;;23.10;9.82;;;;;;;;;;4922968;29;20071;-59
2021/05/19 09:04:16;;;;;;;21.70;10.00;;;;;;;;;;4911766;29;20040;-56
2021/05/19 09:06:42;;;;;;;18.52;9.68;;;;;;;;;;4909267;29;20040;-56
2021/05/19 09:09:23;;;;;;;23.35;10.30;;;;;;;;;;4912682;29;20108;-58
2021/05/19 09:12:03;;;;;;;23.80;10.07;;;;;;;;;;4909108;29;20072;-55
2021/05/19 09:14:31;;;;;;;18.95;9.40;;;;;;;;;;4893685;29;20052;-57
2021/05/19 09:17:16;;;;;;;20.85;9.77;;;;;;;;;;4894242;29;20051;-59
2021/05/19 09:19:43;;;;;;;20.67;10.27;;;;;;;;;;4908772;29;20040;-58
2021/05/19 09:22:16;;;;;;;23.25;10.80;;;;;;;;;;4908453;29;20119;-60
2021/05/19 09:24:43;;;;;;;25.80;10.73;;;;;;;;;;4902739;29;20040;-56
2021/05/19 09:27:09;;;;;;;20.98;10.02;;;;;;;;;;4894685;29;20045;-58
2021/05/19 09:29:36;;;;;;;17.38;9.30;;;;;;;;;;4908509;29;20051;-56
2021/05/19 09:32:05;;;;;;;18.50;8.52;;;;;;;;;;4903402;29;20044;-58
2021/05/19 09:34:32;;;;;;;17.65;8.82;;;;;;;;;;4908946;29;20032;-58
2021/05/19 09:37:30;;;;;;;20.58;10.77;;;;;;;;;;4929409;29;20048;-57
2021/05/19 09:39:57;;;;;;;29.73;10.18;;;;;;;;;;4880991;29;20040;-56
2021/05/19 09:42:24;;;;;;;16.88;9.10;;;;;;;;;;4916781;29;20032;-57
2021/05/19 09:44:51;;;;;;;20.30;9.55;;;;;;;;;;4909258;29;20100;-51
2021/05/19 09:47:31;;;;;;;20.50;10.00;;;;;;;;;;4911715;29;20056;-54
2021/05/19 09:49:57;;;;;;;18.73;9.18;;;;;;;;;;4938470;29;20050;-60
2021/05/19 09:52:24;;;;;;;21.77;9.57;;;;;;;;;;4930517;29;20036;-57
2021/05/19 09:54:50;;;;;;;21.98;10.02;;;;;;;;;;4926160;29;20126;-58
2021/05/19 09:57:18;;;;;;;26.15;9.85;;;;;;;;;;4930776;29;20035;-56
2021/05/19 09:59:44;;;;;;;24.20;11.07;;;;;;;;;;4916435;29;20080;-54
2021/05/19 10:02:12;;;;;;;19.98;9.98;;;;;;;;;;4928554;29;20040;-59
2021/05/19 10:04:39;;;;;;;19.98;9.13;;;;;;;;;;4920448;29;20046;-58
2021/05/19 10:07:11;;;;;;;22.40;9.02;;;;;;;;;;4912450;29;20048;-59
2021/05/19 10:09:37;;;;;;;21.17;8.77;;;;;;;;;;4911369;29;20108;-56
2021/05/19 10:12:06;;;;;;;18.10;8.48;;;;;;;;;;4931121;29;20032;-56
2021/05/19 10:14:33;;;;;;;23.88;7.60;;;;;;;;;;4925898;29;20120;-56
2021/05/19 10:17:01;;;;;;;26.33;7.75;;;;;;;;;;4930556;29;20057;-58
2021/05/19 10:19:28;;;;;;;;;;;;;;;;;;4929120;29;20152;-55
2021/05/19 10:21:59;;;;;;;16.48;7.57;;;;;;;;;;4928882;29;19915;-53
2021/05/19 10:24:40;;;;;;;20.30;7.07;;;;;;;;;;4932214;29;20055;-59
2021/05/19 10:27:09;;;;;;;22.13;7.68;;;;;;;;;;4909875;29;20096;-56
2021/05/19 10:29:53;;;;;;;16.70;8.07;;;;;;;;;;4911636;29;20040;-57
2021/05/19 10:32:33;;;;;;;5.18;1.90;;;;;;;;;;4889437;29;20040;-54
2021/05/19 10:35:00;;;;;;;3.72;1.10;;;;;;;;;;4909211;29;20040;-58
2021/05/19 10:37:47;;;;;;;4.60;1.30;;;;;;;;;;4923474;29;20044;-56
2021/05/19 10:40:29;;;;;;;2.38;0.90;;;;;;;;;;4914126;29;20032;-58
2021/05/19 10:43:03;;;;;;;4.50;1.10;;;;;;;;;;4892610;29;20044;-56
2021/05/19 10:45:31;;;;;;;4.63;1.35;;;;;;;;;;4890618;29;20068;-56
2021/05/19 10:47:57;;;;;;;3.55;1.48;;;;;;;;;;4892845;29;20041;-56
2021/05/19 10:50:32;;;;;;;5.20;1.42;;;;;;;;;;4908281;29;20052;-51
2021/05/19 10:58:44;;;;;;;3.33;1.30;;;;;;;;;;4910508;29;20118;-55
2021/05/19 11:01:11;;;;;;;3.40;1.13;;;;;;;;;;4907902;29;20040;-56
2021/05/19 11:03:38;;;;;;;1.90;1.10;;;;;;;;;;4928784;29;20067;-56
2021/05/19 11:06:10;;;;;;;6.43;1.50;;;;;;;;;;4897106;29;20032;-57
2021/05/19 11:08:36;;;;;;;5.22;1.48;;;;;;;;;;4907006;29;20052;-54
2021/05/19 11:11:18;;;;;;;8.98;1.33;;;;;;;;;;4929132;29;20040;-54
2021/05/19 11:14:02;;;;;;;3.55;1.30;;;;;;;;;;4925582;29;20051;-54
2021/05/19 11:16:48;;;;;;;2.15;1.23;;;;;;;;;;4929361;29;20050;-58
2021/05/19 11:19:42;;;;;;;4.40;1.38;;;;;;;;;;4892138;29;20037;-58
2021/05/19 11:22:09;;;;;;;4.00;1.40;;;;;;;;;;4859232;29;20032;-53
2021/05/19 11:24:54;;;;;;;6.30;1.70;;;;;;;;;;4929396;29;20039;-56
2021/05/19 11:27:21;;;;;;;3.42;1.50;;;;;;;;;;4908848;29;20096;-56
2021/05/19 11:29:47;;;;;;;4.35;1.48;;;;;;;;;;4908876;29;20048;-55
2021/05/19 11:32:21;;;;;;;5.18;1.50;;;;;;;;;;4910753;29;20040;-55
2021/05/19 11:34:48;;;;;;;2.90;1.38;;;;;;;;;;4890886;29;20115;-57
2021/05/19 11:37:15;;;;;;;3.05;1.08;;;;;;;;;;4891279;29;20044;-53
2021/05/19 11:39:45;;;;;;;3.13;1.40;;;;;;;;;;4923165;29;20057;-59
2021/05/19 11:42:19;;;;;;;5.32;1.33;;;;;;;;;;4926900;29;20050;-58
2021/05/19 11:44:49;;;;;;;3.47;1.20;;;;;;;;;;4907704;29;20046;-54
2021/05/19 11:47:15;;;;;;;4.03;1.50;;;;;;;;;;4909878;29;20051;-54
2021/05/19 11:49:42;;;;;;;2.75;1.00;;;;;;;;;;4938129;28;20067;-54
2021/05/19 11:52:11;;;;;;;4.45;1.30;;;;;;;;;;4929652;29;20079;-55
2021/05/19 11:54:41;;;;;;;3.00;1.40;;;;;;;;;;4924903;29;20051;-54
2021/05/19 11:57:10;;;;;;;1.88;1.13;;;;;;;;;;4930566;29;20047;-53
2021/05/19 11:59:38;;;;;;;4.45;1.38;;;;;;;;;;4914520;29;20112;-51
2021/05/19 12:04:36;;;;;;;3.78;1.38;;;;;;;;;;4906214;29;20005;-54
2021/05/19 12:07:05;;;;;;;5.43;1.35;;;;;;;;;;4911344;29;20055;-56
2021/05/19 12:09:32;;;;;;;2.03;1.05;;;;;;;;;;4906834;29;20050;-55
2021/05/19 12:12:10;;;;;;;3.95;1.60;;;;;;;;;;4911226;29;20044;-57
2021/05/19 12:14:37;;;;;;;5.47;1.55;;;;;;;;;;4907272;29;20051;-56
2021/05/19 12:17:03;;;;;;;2.58;1.05;;;;;;;;;;4910717;29;20040;-54
2021/05/19 12:19:34;;;;;;;4.28;1.45;;;;;;;;;;4908382;29;20035;-55
2021/05/19 12:22:06;;;;;;;4.10;1.30;;;;;;;;;;4914202;29;20059;-49
2021/05/19 12:24:33;;;;;;;5.18;1.30;;;;;;;;;;4912522;29;20043;-57
2021/05/19 12:26:59;;;;;;;2.25;1.10;;;;;;;;;;4953222;28;20043;-51
2021/05/19 12:29:32;;;;;;;2.47;1.40;;;;;;;;;;4949467;29;20055;-53
2021/05/19 12:32:11;;;;;;;3.03;1.25;;;;;;;;;;4915719;29;20143;-55
2021/05/19 12:34:37;;;;;;;2.47;1.13;;;;;;;;;;4913504;29;20044;-55
2021/05/19 12:37:03;;;;;;;2.53;1.10;;;;;;;;;;4927851;29;20072;-55
2021/05/19 12:39:30;;;;;;;2.38;1.42;;;;;;;;;;4932357;29;20156;-55
2021/05/19 12:42:21;;;;;;;3.25;1.27;;;;;;;;;;4927447;29;20036;-54
2021/05/19 12:44:56;;;;;;;3.47;1.25;;;;;;;;;;4927141;29;20046;-52
2021/05/19 12:47:24;;;;;;;3.53;1.25;;;;;;;;;;4908278;29;20047;-54
2021/05/19 12:49:57;;;;;;;3.15;1.40;;;;;;;;;;4911188;29;20036;-57
2021/05/19 12:52:24;;;;;;;4.20;1.70;;;;;;;;;;4923735;29;20075;-57
2021/05/19 12:54:52;;;;;;;3.67;1.30;;;;;;;;;;4932175;28;20388;-59
2021/05/19 12:57:23;;;;;;;427.75;17.23;;;;;;;;;;4926040;28;20401;-57
2021/05/19 12:59:50;;;;;;;240.15;7.43;;;;;;;;;;4931042;28;20102;-55
2021/05/19 13:02:16;;;;;;;18.50;1.40;;;;;;;;;;4917122;29;20043;-53
2021/05/19 13:04:45;;;;;;;39.55;2.85;;;;;;;;;;4928433;29;20055;-51
2021/05/19 13:07:14;;;;;;;5.85;1.00;;;;;;;;;;4918903;29;20047;-54
2021/05/19 13:09:40;;;;;;;396.20;15.00;;;;;;;;;;4931267;29;20053;-51
2021/05/19 13:12:20;;;;;;;362.83;11.23;;;;;;;;;;4928044;29;20122;-55
2021/05/19 13:14:48;;;;;;;11.48;1.40;;;;;;;;;;4932330;29;20118;-55
2021/05/19 13:17:25;;;;;;;58.60;2.40;;;;;;;;;;4907954;29;20054;-53
2021/05/19 13:19:55;;;;;;;84.43;3.08;;;;;;;;;;4912621;29;20036;-56
2021/05/19 13:22:23;;;;;;;68.22;3.13;;;;;;;;;;4914551;29;20035;-51
2021/05/19 13:24:49;;;;;;;175.27;5.38;;;;;;;;;;4932212;29;20051;-58
2021/05/19 13:27:25;;;;;;;2.38;1.00;;;;;;;;;;4908418;29;20106;-57
2021/05/19 13:29:53;;;;;;;3.83;1.10;;;;;;;;;;4910996;29;20040;-59
2021/05/19 13:32:23;;;;;;;18.52;1.50;;;;;;;;;;4907744;29;20047;-56
2021/05/19 13:36:13;;;;;;;51.40;2.72;;;;;;;;;;4912088;29;20048;-55
2021/05/19 13:37:34;;;;;;;23.25;1.40;;;;;;;;;;4907038;29;20036;-54
2021/05/19 13:40:02;;;;;;;3.60;1.30;;;;;;;;;;4912874;29;20055;-56
2021/05/19 13:42:29;;;;;;;2.92;1.23;;;;;;;;;;4944297;29;20047;-55
2021/05/19 13:44:55;;;;;;;3.00;1.10;;;;;;;;;;4949177;28;20059;-55
2021/05/19 13:47:21;;;;;;;72.53;3.67;;;;;;;;;;4931581;29;20048;-55
2021/05/19 13:49:46;;;;;;;103.72;5.65;;;;;;;;;;4926521;29;20055;-55
2021/05/19 13:52:13;;;;;;;29.73;2.58;;;;;;;;;;4931499;29;20042;-54
2021/05/19 13:54:41;;;;;;;2.78;1.10;;;;;;;;;;4926867;29;20028;-56
2021/05/19 13:57:07;;;;;;;20.40;1.92;;;;;;;;;;4930301;29;20039;-51
2021/05/19 13:59:34;;;;;;;12.27;2.10;;;;;;;;;;4946589;29;20043;-53
2021/05/19 14:02:03;;;;;;;10.55;2.38;;;;;;;;;;4924815;29;20116;-57
2021/05/19 14:04:29;;;;;;;38.17;4.20;;;;;;;;;;4911632;29;20115;-63
2021/05/19 14:06:57;;;;;;;104.63;4.68;;;;;;;;;;4910922;29;20036;-55
2021/05/19 14:09:23;;;;;;;40.50;2.38;;;;;;;;;;4906382;29;20048;-63
2021/05/19 14:11:56;;;;;;;3.55;1.10;;;;;;;;;;4911439;29;20040;-60
2021/05/19 14:14:32;;;;;;;1.98;1.00;;;;;;;;;;4906550;29;20100;-60
2021/05/19 14:17:13;;;;;;;374.85;15.77;;;;;;;;;;4910263;29;20035;-58
2021/05/19 14:20:03;;;;;;;491.98;26.95;;;;;;;;;;4909213;29;20055;-61
2021/05/19 14:27:57;;;;;;;1.88;1.00;;;;;;;;;;4911401;29;20057;-56
2021/05/19 14:30:24;;;;;;;3.03;0.90;;;;;;;;;;4917411;29;20075;-54
2021/05/19 14:32:53;;;;;;;1.35;0.68;;;;;;;;;;4929864;29;20091;-60
2021/05/19 14:35:36;;;;;;;41.42;2.95;;;;;;;;;;4920921;29;20047;-58
2021/05/19 14:38:49;;;;;;;83.35;3.67;;;;;;;;;;4910122;29;20050;-58
2021/05/19 15:00:27;;;;;;;76.88;3.65;;;;;;;;;;4889173;29;20072;-57
2021/05/19 15:02:53;;;;;;;82.88;4.20;;;;;;;;;;4887034;29;20039;-56
2021/05/19 15:05:20;;;;;;;4.50;1.63;;;;;;;;;;4903938;29;20044;-57
2021/05/19 15:07:46;;;;;;;92.65;3.33;;;;;;;;;;4892988;29;20064;-59
2021/05/19 15:10:12;;;;;;;69.32;2.17;;;;;;;;;;4898527;29;20077;-56
2021/05/19 15:12:40;;;;;;;1.75;0.80;;;;;;;;;;4888333;29;20117;-58
2021/05/19 15:15:07;;;;;;;30.20;1.30;;;;;;;;;;4898124;29;20062;-60
2021/05/19 15:17:33;;;;;;;11.15;0.93;;;;;;;;;;4909963;29;20044;-60